createdAt,value
2023-03-25T00:03:16.220Z,11.12
2023-03-25T00:08:17.693Z,10.93
2023-03-25T00:13:19.500Z,10.78
2023-03-25T00:18:21.943Z,10.76
2023-03-25T00:23:23.449Z,10.54
2023-03-25T00:28:25.334Z,10.48
2023-03-25T00:33:28.389Z,10.52
2023-03-25T00:38:35.552Z,10.48
2023-03-25T00:43:37.516Z,10.42
2023-03-25T00:48:39.531Z,10.33
2023-03-25T00:53:41.399Z,10.29
2023-03-25T00:58:42.838Z,10.21
2023-03-25T01:03:44.937Z,10.14
2023-03-25T01:08:47.266Z,10.17
2023-03-25T01:13:48.838Z,10.17
2023-03-25T01:18:50.883Z,10.15
2023-03-25T01:23:52.554Z,10.10
2023-03-25T01:28:54.079Z,10.04
2023-03-25T01:33:59.385Z,10.05
2023-03-25T01:39:01.495Z,10.06
2023-03-25T01:44:10.875Z,10.11
2023-03-25T01:49:21.737Z,10.06
2023-03-25T01:54:24.194Z,10.03
2023-03-25T01:59:28.755Z,10.09
2023-03-25T02:04:39.566Z,10.09
2023-03-25T02:09:41.236Z,10.14
2023-03-25T02:14:42.981Z,10.13
2023-03-25T02:20:14.064Z,10.04
2023-03-25T02:25:36.869Z,10.08
2023-03-25T02:31:09.203Z,10.03
2023-03-25T02:36:37.253Z,10.02
2023-03-25T02:41:53.848Z,10.06
2023-03-25T02:47:00.554Z,10.01
2023-03-25T02:52:06.643Z,9.99
2023-03-25T02:57:10.769Z,10.00
2023-03-25T03:02:13.608Z,9.77
2023-03-25T03:07:28.562Z,9.93
2023-03-25T03:12:45.197Z,9.83
2023-03-25T03:18:10.262Z,9.79
2023-03-25T03:23:24.489Z,9.79
2023-03-25T03:28:35.049Z,9.76
2023-03-25T03:33:55.711Z,9.77
2023-03-25T03:39:07.975Z,9.78
2023-03-25T03:44:21.759Z,9.86
2023-03-25T03:49:28.867Z,9.84
2023-03-25T03:54:34.728Z,9.79
2023-03-25T04:00:04.233Z,9.75
2023-03-25T04:05:10.967Z,9.66
2023-03-25T04:10:21.612Z,9.64
2023-03-25T04:15:23.066Z,9.48
2023-03-25T04:20:26.515Z,9.48
2023-03-25T04:25:30.278Z,9.31
2023-03-25T04:30:31.979Z,9.26
2023-03-25T04:35:34.059Z,9.25
2023-03-25T04:40:35.555Z,9.19
2023-03-25T04:45:37.286Z,9.27
2023-03-25T04:50:38.749Z,9.25
2023-03-25T04:55:48.400Z,9.28
2023-03-25T05:00:52.097Z,9.31
2023-03-25T05:05:53.749Z,9.26
2023-03-25T05:10:55.486Z,9.28
2023-03-25T05:15:57.492Z,9.23
2023-03-25T05:21:00.875Z,9.20
2023-03-25T05:26:03.844Z,9.14
2023-03-25T05:31:08.394Z,9.15
2023-03-25T05:36:11.619Z,9.19
2023-03-25T05:41:16.475Z,9.16
2023-03-25T05:46:19.077Z,9.08
2023-03-25T05:51:22.275Z,9.13
2023-03-25T05:56:24.259Z,9.13
2023-03-25T06:01:33.296Z,9.19
2023-03-25T06:06:36.275Z,9.18
2023-03-25T06:11:40.293Z,9.06
2023-03-25T06:16:44.067Z,9.19
2023-03-25T06:21:51.584Z,9.00
2023-03-25T06:26:53.426Z,9.19
2023-03-25T06:31:55.064Z,9.50
2023-03-25T06:36:56.613Z,9.58
2023-03-25T06:41:59.070Z,9.63
2023-03-25T06:47:02.906Z,9.58
2023-03-25T06:52:04.684Z,9.59
2023-03-25T06:57:06.494Z,9.61
2023-03-25T07:02:08.234Z,9.51
2023-03-25T07:07:11.615Z,9.61
2023-03-25T07:12:13.114Z,9.71
2023-03-25T07:17:14.686Z,9.94
2023-03-25T07:22:16.660Z,10.17
2023-03-25T07:27:18.965Z,10.46
2023-03-25T07:32:21.071Z,10.77
2023-03-25T07:37:22.754Z,10.71
2023-03-25T07:42:24.202Z,10.67
2023-03-25T07:47:25.742Z,10.88
2023-03-25T07:52:27.215Z,11.25
2023-03-25T07:57:28.888Z,10.96
2023-03-25T08:02:30.672Z,11.04
2023-03-25T08:07:33.320Z,11.38
2023-03-25T08:12:34.924Z,12.02
2023-03-25T08:17:36.993Z,12.12
2023-03-25T08:22:39.897Z,12.00
2023-03-25T08:27:41.420Z,11.81
2023-03-25T08:32:46.446Z,11.67
2023-03-25T08:37:48.630Z,11.57
2023-03-25T08:42:50.587Z,11.78
2023-03-25T08:47:53.833Z,12.25
2023-03-25T08:52:58.665Z,12.29
2023-03-25T08:58:06.462Z,12.25
2023-03-25T09:03:07.921Z,12.18
2023-03-25T09:08:10.629Z,12.32
2023-03-25T09:13:12.344Z,12.32
2023-03-25T09:18:14.019Z,12.05
2023-03-25T09:23:16.127Z,12.17
2023-03-25T09:28:17.843Z,12.17
2023-03-25T09:33:20.820Z,12.43
2023-03-25T09:38:23.735Z,13.01
2023-03-25T09:43:52.162Z,12.85
2023-03-25T09:48:54.483Z,12.38
2023-03-25T09:54:02.785Z,11.81
2023-03-25T09:59:10.120Z,9.74
2023-03-25T10:04:20.272Z,9.27
2023-03-25T10:09:44.987Z,9.61
2023-03-25T10:15:05.650Z,10.59
2023-03-25T10:20:20.585Z,13.95
2023-03-25T10:25:26.300Z,15.54
2023-03-25T10:30:35.387Z,15.23
2023-03-25T10:35:40.566Z,15.74
2023-03-25T10:40:52.442Z,16.07
2023-03-25T10:46:22.458Z,16.56
2023-03-25T10:51:28.829Z,19.58
2023-03-25T10:56:42.423Z,21.58
2023-03-25T11:01:44.455Z,22.37
2023-03-25T11:06:52.799Z,21.66
2023-03-25T11:11:54.880Z,22.44
2023-03-25T11:17:03.234Z,25.65
2023-03-25T11:22:21.946Z,23.09
2023-03-25T11:27:29.444Z,23.04
2023-03-25T11:32:38.791Z,23.41
2023-03-25T11:37:46.978Z,22.20
2023-03-25T11:42:57.528Z,21.04
2023-03-25T11:48:02.765Z,19.13
2023-03-25T11:53:06.138Z,20.27
2023-03-25T11:58:15.974Z,20.97
2023-03-25T12:03:20.308Z,20.23
2023-03-25T12:08:22.532Z,23.52
2023-03-25T12:14:11.522Z,24.98
2023-03-25T12:19:33.431Z,26.76
2023-03-25T12:24:57.401Z,25.98
2023-03-25T12:30:14.557Z,27.82
2023-03-25T12:35:16.354Z,30.03
2023-03-25T12:40:36.463Z,27.83
2023-03-25T12:45:41.145Z,26.89
2023-03-25T12:50:59.874Z,28.51
2023-03-25T12:56:23.306Z,30.95
2023-03-25T13:01:54.212Z,31.27
2023-03-25T13:07:01.942Z,32.59
2023-03-25T13:12:11.428Z,31.65
2023-03-25T13:17:25.025Z,25.94
2023-03-25T13:22:32.338Z,24.80
2023-03-25T13:27:40.161Z,26.51
2023-03-25T13:32:53.623Z,24.56
2023-03-25T13:38:02.135Z,20.24
2023-03-25T13:43:17.148Z,20.27
2023-03-25T13:48:23.755Z,20.22
2023-03-25T13:53:37.908Z,20.29
2023-03-25T13:59:05.016Z,19.82
2023-03-25T14:04:28.209Z,19.46
2023-03-25T14:09:59.937Z,18.59
2023-03-25T14:15:23.614Z,18.24
2023-03-25T14:20:45.677Z,18.30
2023-03-25T14:25:57.393Z,17.72
2023-03-25T14:31:14.051Z,17.53
2023-03-25T14:36:16.696Z,16.93
2023-03-25T14:41:55.410Z,16.76
2023-03-25T14:47:26.872Z,16.67
2023-03-25T14:52:37.797Z,16.34
2023-03-25T14:57:44.711Z,16.24
2023-03-25T15:02:53.523Z,16.21
2023-03-25T15:08:02.122Z,16.16
2023-03-25T15:13:16.669Z,15.99
2023-03-25T15:18:37.197Z,15.65
2023-03-25T15:23:49.911Z,15.61
2023-03-25T15:29:21.990Z,15.41
2023-03-25T15:34:51.064Z,15.26
2023-03-25T15:40:18.164Z,15.09
2023-03-25T15:45:50.801Z,15.23
2023-03-25T15:51:01.937Z,15.07
2023-03-25T15:56:16.737Z,15.04
2023-03-25T16:01:30.514Z,15.01
2023-03-25T16:06:40.118Z,15.03
2023-03-25T16:11:43.805Z,14.76
2023-03-25T16:16:51.464Z,14.70
2023-03-25T16:21:55.096Z,14.63
2023-03-25T16:26:57.873Z,14.53
2023-03-25T16:32:03.867Z,14.44
2023-03-25T16:37:07.200Z,14.41
2023-03-25T16:42:19.453Z,14.31
2023-03-25T16:47:22.434Z,14.17
2023-03-25T16:52:30.244Z,14.07
2023-03-25T16:57:38.544Z,14.04
2023-03-25T17:02:41.864Z,14.01
2023-03-25T17:07:43.551Z,13.91
2023-03-25T17:12:53.859Z,13.76
2023-03-25T17:18:02.020Z,13.69
2023-03-25T17:23:35.530Z,13.57
2023-03-25T17:28:43.086Z,13.52
2023-03-25T17:33:50.947Z,13.43
2023-03-25T17:38:56.049Z,13.30
2023-03-25T17:43:57.846Z,13.18
2023-03-25T17:48:59.835Z,13.12
2023-03-25T17:54:01.740Z,12.94
2023-03-25T17:59:05.652Z,13.01
2023-03-25T18:04:07.034Z,12.95
2023-03-25T18:09:23.849Z,12.92
2023-03-25T18:14:26.188Z,12.85
2023-03-25T18:19:31.955Z,12.85
2023-03-25T18:24:34.198Z,12.73
2023-03-25T18:29:37.320Z,12.70
2023-03-25T18:34:39.845Z,12.52
2023-03-25T18:39:41.250Z,12.43
2023-03-25T18:44:42.745Z,12.26
2023-03-25T18:49:44.241Z,12.03
2023-03-25T18:54:46.045Z,11.96
2023-03-25T18:59:47.591Z,11.92
2023-03-25T19:05:00.142Z,11.78
2023-03-25T19:10:02.655Z,11.55
2023-03-25T19:15:04.697Z,11.48
2023-03-25T19:20:07.662Z,11.53
2023-03-25T19:25:09.681Z,11.47
2023-03-25T19:30:17.581Z,11.42
2023-03-25T19:35:21.061Z,11.38
2023-03-25T19:40:26.381Z,11.23
2023-03-25T19:45:30.550Z,11.19
2023-03-25T19:50:34.095Z,11.18
2023-03-25T19:55:35.733Z,11.11
2023-03-25T20:00:37.165Z,11.08
2023-03-25T20:05:38.617Z,10.96
2023-03-25T20:10:41.461Z,10.93
2023-03-25T20:15:43.011Z,10.95
2023-03-25T20:20:44.715Z,11.00
2023-03-25T20:25:47.342Z,10.94
2023-03-25T20:30:48.696Z,10.94
2023-03-25T20:35:51.677Z,10.91
2023-03-25T20:40:54.544Z,10.85
2023-03-25T20:45:56.412Z,10.76
2023-03-25T20:51:04.604Z,10.74
2023-03-25T20:56:06.181Z,10.59
2023-03-25T21:01:07.981Z,10.58
2023-03-25T21:06:23.086Z,10.46
2023-03-25T21:11:27.272Z,10.52
2023-03-25T21:16:28.819Z,10.37
2023-03-25T21:21:31.409Z,10.37
2023-03-25T21:26:34.417Z,10.38
2023-03-25T21:31:36.276Z,10.40
2023-03-25T21:36:37.720Z,10.34
2023-03-25T21:41:39.746Z,10.38
2023-03-25T21:46:42.634Z,10.35
2023-03-25T21:51:44.309Z,10.34
2023-03-25T21:56:46.488Z,10.37
2023-03-25T22:01:48.008Z,10.20
2023-03-25T22:06:49.659Z,10.13
2023-03-25T22:11:51.360Z,10.09
2023-03-25T22:16:52.731Z,9.96
2023-03-25T22:21:54.188Z,10.02
2023-03-25T22:26:55.831Z,9.99
2023-03-25T22:31:57.597Z,9.93
2023-03-25T22:36:59.522Z,9.89
2023-03-25T22:42:00.996Z,9.91
2023-03-25T22:47:03.432Z,9.94
2023-03-25T22:52:05.686Z,9.91
2023-03-25T22:57:07.161Z,9.84
2023-03-25T23:02:12.317Z,9.80
2023-03-25T23:07:14.305Z,9.85
2023-03-25T23:12:23.944Z,9.84
2023-03-25T23:17:26.696Z,9.82
2023-03-25T23:22:28.516Z,9.80
2023-03-25T23:27:30.910Z,9.85
2023-03-25T23:32:36.029Z,9.80
2023-03-25T23:37:37.667Z,9.75
2023-03-25T23:42:39.154Z,9.72
2023-03-25T23:47:40.571Z,9.60
2023-03-25T23:52:42.000Z,9.53
2023-03-25T23:57:43.566Z,9.50
